Etusivu
METAR-TAF:

METAR-TAF

Lentoasemat :

Pilanesberg International Airport

Sun City, Etelä-Afrikka

Leveyspiiri: 25-20-01S, Pituuspiiri: 027-10-24E, korkeus merenpinnasta: 1040 m

Tämänhetkinen sää

Tämä raportti tehtiin 50 minuuttia sitten, kello 18.00 UTC
Tuuli 5 kn lännestä
Lämpötila 24°C
Kosteus 47%
Ilmanpaine 1014 hPa

METAR: FAPN 191800Z AUTO 27005KT //// // ////// 24/12 Q1014

Aika: 20:50 (18:50 UTC)


TAF: puuttuu

Säähavainnot ja -ennusteet yli 4000 lentoasemalta (METAR- ja TAF-raportit).

Käytössä olevat sääasemat on merkitty karttaan keltaisilla ja punaisilla pisteillä.

Aseta hiiri pisteen päälle nähdäksesi sääaseman nimen.

Klikkaa sitten nähdäksesi säähavainnot ja -ennusteet.

Kartan vaihtaminen: klikkaa mustalla rastilla varustettuja vihreitä pisteitä, niin voit zoomata sisään; viivalla varustettua vihreää pistettä, niin voit zoomata ulos tai vihreitä nuolia, niin pääset viereisille kartoille.


METAR-TAF: